Best seller

Grab Daily Coupons to Cut Down Price for All Goods of Geekbuying

Want create site? Find Free WordPress Themes and plugins.

Here are daily coupons for Geekbuying hot products, we will update daily for you, you can focus on it and check if there is any needs before buying.

Update on Aug.7, 2018

Update Date Product Name Final Prices Link on Coupon Limited Qty Expiry Date
2018/08/07 Xiaomi Mi A1 4GB 64GB Gold $189.99 DJMKADEJ 50 2018/08/22
2018/08/07 OPPO Find X 8GB 128GB Red / Blue $855.99 YLPYXKXC 20 2018/08/22
2018/08/07 [Official Global Version] Xiaomi Redmi 5 Plus 4GB 64GB Gold $179.99 PZVEWTKV 50 2018/08/22
2018/08/07 Oneplus 6 6GB 64GB Mirror Black $477.99 XZWLMSKA 50 2018/08/22
2018/08/07 Oneplus 6 8GB 128GB Silk White $559.99 GEVBKTZR 50 2018/08/22
2018/08/07 [Official Global Version] Xiaomi Mi A2 Lite 4GB 64GB Blue $222.99 GZMCPPXL 50 2018/08/22
2018/08/07 HUAWEI Selfie Stick Tripod Bluetooth Remote Wireless Control $21.99 SZXIWCXK 50 2018/09/06
2018/08/07 Huawei Honor Magicbook AMD Ryzen 5 14″ 8GB+256GB $799.99 GKB032T 20 2018/09/06
2018/08/07 [Poland Stock][EU Version] Xiaomi M365 Folding Electric Scooter $519.99 Flash Sale & Free Shipping 50 2018/08/12
2018/08/07 [HK Stock] [International Edition] Xiaoyi Yi Smart Car DVR $59.99 PZEZUTBK 50 2018/09/06
2018/08/07 [Spain Stock] Elephone REXSO Explorer X Action Camera $25.99 JYNZEJPX 50 2018/09/06
2018/08/07 HK Stock] Razer DeathAdder 2000 Wired Ergonomic Gaming Mouse $29.99 JENSGXHM 50 2018/08/21
2018/08/07 Makibes MK01 4G Smartwatch Phone Android 7.0 $109.99 BFXTBSSG 50 2018/08/21

 

Update on Aug. 5, 2018

Update Date Product Name Final Prices Link on Coupon Limited Qty Expiry Date
Priority Line to EU
2018/08/04 Global ROM Xiaomi Redmi Note 5 6GB 128GB – All Colors $329.99 RNJURYJD 100 2018/08/19 YES
2018/08/04 [Italy Stock] VOYO VBook I7 Plus 12.6″ i7-7500U 8G/256G $644.99 GKB031T 30 2018/09/03 YES
2018/08/04 Xiaomi Mi Pad 4 WiFi + 4G LTE Version $299.99 GKB030T 50 2018/09/03 YES
2018/08/04 Xiaomi Mijia Bedside Lamp Bluetooth WiFi Connection – Upgraded Version $57.00 QEWDOVZF 100 2018/09/03 YES
2018/08/04 Geekbes BR30 WiFi Smart Bulb RGB Color & Dimmable Remote $17.99 EJQKWXKQ 100 2018/09/03 YES

 

Update on Aug. 3, 2018

Update Date Product Name Final Prices Link on Coupon Limited Qty Expiry Date
2018/08/03 [Italy Stock] Global ROM Xiaomi Redmi 5 Plus 4GB 64GB Gold $185.99 KITXIZEB 30 2018/08/19
2018/08/03 [Italy Stock] Global Ulefone T1 Premium Edition 6GB 128GB Black $199.99 FFUWFHXP 30 2018/08/19
2018/08/03 [Spain Stock] Global Ulefone T1 Premium Edition 6GB 128GB Red Blue $199.99 FFUWFHXP 30 2018/08/19
2018/08/03 [HK Stock] Razer Kraken 7.1 Chroma V2 USB Gaming Headset $99.99 REWLXQTO 50 2018/08/20
2018/08/03 [HK Stock] Razer Man O’War Destiny 2 Edition Gaming Headset $116.99 BQDKZLLJ 50 2018/08/20
2018/08/03 SW-BE80 80cc 2-stroke Bicycle Motorized $86.99 CGYLIUIS 50 2018/08/20
2018/08/03 Xiaomi 90 Minutes Outdoor Leisure Backpack $64.99 ZRUBCUIR 50 2018/08/20
2018/08/03 Ajazz Mechanical Wolf Wired Gaming Keyboard & Mouse Combos $44.99 PGCRINNP 50 2018/08/20
2018/08/03 Xiaomi Mijia Quartz Smartwatch 3ATM Water Resistant Pedometer $66.99 ORHOEAMT 50 2018/08/20
2018/08/03 MJX Bugs 3 B3 Pro with 1080P Camera RTF $188.00 ESHQNNZR 50 2018/08/15
2018/08/03 Feiyu Tech G6 Plus $259.00 FHZXGHAZ 50 2018/08/15
2018/08/03 MJX Bugs B5W $159.00 DXDGYJVK 50 2018/08/15
2018/08/03 JJRC JJPRO X5 EPIK 5G WIFI 1080P GPS Drone $165.99 GETJPRVM 50 2018/08/15
2018/08/03 [International Version] Xiaomi Viomi Robot Vacuum Cleaner $359.99 UEWOKJCC 50 2018/08/15

Update on Aug.2, 2018

Update Date Product Name Final Prices Link on Coupon Limited Qty Expiry Date
2018/08/02 Xiaomi Black Shark 6GB 64GB Black – With free game controller $499.99 GOTTEPLD 50 2018/08/18
2018/08/02 Xiaomi Black Shark 8GB 128GB Black / Gray – With free game controller $579.99 BAEWPAEQ 50 2018/08/18
2018/08/02 Xiaomi Redmi 6A 3GB 32GB $155.99 URNHPMRS 50 2018/08/17
2018/08/02 [Official Global Version]Xiaomi Redmi 6 4GB 64GB Black $222.99 MWMTTFKB 50 2018/08/17
2018/08/02 [Official Global Version]Xiaomi Redmi 6A 2GB 16GB Black $139.99 WADUSITA 50 2018/08/17
2018/08/02 [France Stock] Oneplus 5T 6G 64G Black $512.99 OZMCBXFA 50 2018/08/31
2018/08/02 [France Stock] Global Redmi 5 Plus 3G 32G Gold $204.99 IGPTCOBL 50 2018/08/31
2018/08/02 [France Stock] Global Redmi NOTE 5 3G 32G Black $214.99 LTAHIIPR 50 2018/08/31
2018/08/02 [France Stock] Global Redmi NOTE 5 3G 32G Blue $212.99 CLPLFTRY 50 2018/08/31
2018/08/02 [France Stock] Global XiaoMi MIX 2S 6G 64G Black $551.99 VQFLXHAU 50 2018/08/31
2018/08/02 [France Stock] Global Redmi S2 4G 64G Gray $215.99 NBFQHCFJ 50 2018/08/31
2018/08/02 [France Stock] Global Redmi S2 4G 64G Gold $215.99 NBFQHCFJ 50 2018/08/31
2018/08/02 Xiaomi 1080P DLP Projector 3500 Lumens Support 4K $764.00 HUAWEI44 50 2018/08/07
2018/08/02 Tronsmart Element Mega Bluetooth Speaker 40W $45.99 TSMEGA 50 2018/08/07
2018/08/02 Tronsmart Spunky Buds Bluetooth Headphones IPX5 $35.99 SPUNKY 50 2018/08/07
2018/08/02 [HK Stock] International Xiaomi Mi Robot Vacuum Cleaner Robot $299.99 YYJUUWSD 100 2018/08/31
2018/08/02 [HK Stock] International Xiaomi Roborock Xiaowa E20 Vacuum Cleaner $259.99 LEMZRMDW 100 2018/08/31
2018/08/02 Xiaomi Mijia Smart Plug WiFi Connetion APP Remote Control $32.99 UJLOQPUI 50 2018/09/02
2018/08/02 U2C WiFi APP Remote Control Essential Oil Diffuser LED Light $31.99 RDNPKPCQ 100 2018/09/02
2018/08/02 Xiaomi Mijia Roborock Vacuum Cleaner 2 – Black $549.99 VWLFZBKF 100 2018/09/02
2018/08/02 Xiaomi Mijia Bluetooth Temperature Humidity Monitor Sensor $14.99 GPYJPPGQ 100 2018/08/30
2018/08/02 Xiaomi Mi Pad 4 WiFi 4GB + 64GB – Black / Gold $259.99 GKB029T 50 2018/09/02
2018/08/02 [Italy Stock] Teclast F7 Business Laptop 6GB 128GB $299.99 FPAFQJSY 50 2018/09/02
2018/08/02 VOYO i7 Plus 12.6″ 3K IPS i7-7500U 8GB 256GB $619.99 GKB028T 50 2018/09/01
2018/08/02 [ES Stock] Jumper EZpad 6 Plus with Keyboard $272.99 GKB027T 50 2018/09/01
2018/08/02 Beelink Gemini X55 8GB/128GB Windows 10 Mini PC $274.99 HUAWEI33 50 2018/08/07
2018/08/02 MECOOL KIII PRO DVB-T2/S2/C YouTube 4K TV BOX $117.99 HUAWEI2 50 2018/08/07
2018/08/02 EWEAT R11 4K Ultra HD Audiophile Blu-ray Media Player $799.00 EWEATR11 50 2018/08/30
2018/08/02 VORKE V2 Plus I7-7500U 8GB/256GB Mini PC $439.00 ABMOVGGJ 50 2018/08/30
2018/08/02 [HK Stock] Global Xiaomi Mi Band 3 Smart Bracelet $37.99 YEOHALWZ 100 2018/08/20
2018/08/02 CORSAIR Vengeance LPX 8GB DDR4 Memory Modules $99.99 ALYUZJVI 50 2018/08/20
2018/08/02 [HK Stock]Tronsmart 60W USB-C 5-Port EU Desktop Charger $23.99 HCHGBCUN 50 2018/08/30
2018/08/02 [HK Stock] Tronsmart 2 Ports Quick Charge 3.0 33W $8.99 WCEQKGJE 50 2018/08/30
2018/08/02 [HK Stock] Tronsmart 60W USB-C 5-Port UK Desktop Charger $23.99 HCHGBCUN 50 2018/08/30
2018/08/02 ESTRELLA 64GB USB Flash Disk Portable Keyring USB2.0 $12.99 XUMLEROK 100 2018/08/30
2018/08/02 Xiaomi HIMO Portable Folding Electric Moped $329.99 GAYNXBYL 50 2018/08/30
2018/08/02 SYL-08 Electric Skateboard With Remote Control $413.99 SUWFAKXC 50 2018/08/30
2018/08/02 [Poland Stock][EU Version]Original Xiaomi M365 Electric Scooter $515.99 SGGAMLFY 50 2018/08/20
2018/08/02 [HK Stock][Official EU Edition] Xiaomi XiaoYi Yi Action Camera $65.99 YIKZMNRK 50 2018/08/20
2018/08/02 JJRC JJPRO X5 EPIK 5G WIFI 1080P GPS Drone $165.99 GETJPRVM 50 2018/08/30
2018/08/02 FXT VIPER 5.8GHz HD Diversity FPV Goggle $149.00 XIAHCZEJ 50 2018/08/20

 

Update on July 27, 2018

Update Date Product Name Final Prices Link on Coupon Limited Qty Expiry Date
Priority Line to EU
igeekphone Official Global ROM Xiaomi Mi8 6GB 128GB White $485.99 FMOIAZGY 50 2018/08/10 YES
2018/07/27 [HK Stock] Global ROM Oneplus 6 6GB 64GB – Mirror Black $519.99 ZVUMVFSY 100 2018/08/12 YES
2018/07/27 Global ROM Xiaomi Mi Mix 2 6GB 256GB – Black $589.99 ZVUMVFSY 100 2018/08/12 YES
2018/07/27 [HK Stock] Global Xiaomi Mi Mix 2S + Soft Case + Tempered Glass $479.99 ZVUMVFSY 100 2018/08/12 YES
2018/07/27 [HK Stock] Global ROM Oneplus 6 6GB 64GB + Soft Case + Tempered Glass $529.99 ZVUMVFSY 100 2018/08/12 YES
2018/07/27 Xiaomi Mi A1 4GB 64GB Gold $189.99 OZCZRSMA 100 2018/08/10 YES
2018/07/27 HUAWEI Honor 9 6GB 64GB – Blue $346.99 UBICNJXL 100 2018/08/12 YES
2018/07/27 [HK Stock] OPPO R11 4GB 64GB Flash Charge – Rose Gold $264.99 UBICNJXL 100 2018/08/12 YES
2018/07/27 [HK Stock] Global Xiaomi Redmi Note 5 4GB 64GB + Phone Case + Screen Protector $210.99 UBICNJXL 100 2018/08/12 YES
2018/07/27 [HK Stock] Global ROM Xiaomi Mi Note 3 6GB 64GB + Soft Case + Tempered Glass $304.99 UBICNJXL 100 2018/08/12 YES
2018/07/27 [HK Stock] Global ZTE Nubia Z17 Lite 6GB 64GB – Black Gold $159.99 Flash Sale 100 2018/07/31 YES
2018/07/27 [DE Stock]One-Netbook One Mix Yoga Pocket Laptop $459.99 GKB025T 50 2018/08/26 YES
2018/07/27 [DE Stock]Mi Notebook Pro 15.6″ i7-8550U 16GB/256GB $1,175.99 GKB024T 50 2018/08/10 YES
2018/07/27 [International Edition] Xiaomi QICYCLE EF1 Smart Bicycle $668.83 PNQQJLGS 50 2018/08/09 YES
2018/07/27 [Germany Stock][Package A] Xiaomi Mijia Roborock Vacuum Cleaner 2 $449.99 YTLLFPPK 100 2018/09/03 YES
2018/07/27 Bathing Hat for baby Kids Shower Cap $2.49 FUAXSMZI 50 2018/08/13 YES
2018/07/27 Xiaomi Mijia Laser Projector 5000 Lumens $1,818.75 IPAZZ1 50 2018/08/12 YES
2018/07/27 Xiaomi Gaming Headphones Virtual 7.1 Surround Sound $69.99 HUAWEI1 50 2018/08/08 YES
2018/07/27 HUAWEI FreeBuds Wireless Bluetooth Earphones $148.99 FREEBUDS 50 2018/08/07 YES
2018/07/27 Tronsmart Element Pixie Double Passive Radiators Bluetooth Speaker $44.99 TSPIXIE 100 2018/09/03 YES
2018/07/27 [HK Stock] Razer Kraken Pro V2 Analog Gaming Headset with Mic $76.99 PAKPVNYR 100 2018/08/18 YES
2018/07/27 [HK Stock] YI M1 Mirrorless Digital Camera with Standard Lens $291.99 FHSCCMNH 100 2018/08/18 YES
2018/07/27 Himedia Q10 Pro Hi3798CV200 4K HDR 2GB/16GB TV BOX $155.19 IPAZZ1 50 2018/08/12 YES
2018/07/27 VISUO XS809S 720P WIFI FPV Drone $53.99 EJFSYDXA 50 2018/08/13 YES
2018/07/27 DJI Osmo Mobile 2 Gimbal $139.99 ZVXDLFTK 100 2018/08/18 YES
2018/07/27 DJI Mavic Air 4K RC Drone RTF – Onyx Black $732.99 ZTRQQBQE 100 2018/08/18 YES
2018/07/27 DJI Mavic Air 4K RC Drone Fly More Combo – Flame Red $941.00 ZTRQQBQE 100 2018/08/18 YES
2018/07/27 JI Mavic Pro Platinum WIFI FPV Foldable Drone RTF $1,008.00 ZTRQQBQE 100 2018/08/18 YES
2018/07/27 DJI Mavic Pro Platinum WIFI FPV Foldable Drone RTF – Fly More Combo $1,231.00 ZTRQQBQE 100 2018/08/18 YES
2018/07/27 [HK Stock] DJI Mavic Pro WIFI Quadcopter RTF $851.99 ZTRQQBQE 100 2018/08/18 YES
2018/07/27 DJI Phantom 4 Pro RC Quadcopter RTF $1,481.00 ZTRQQBQE 100 2018/08/18 YES
2018/07/27 DJI Phantom 4 Pro+ RC Drone with 5.5″ 1080P Screen $1,851.00 ZTRQQBQE 100 2018/08/18 YES

 

Update on July 26, 2018

Update Date Product Name Final Prices Link on Coupon Limited Qty Expiry Date
2018/07/26 Xiaomi Mi Max 3 4GB 64GB Black / Gold $303.35 GKB4%OFF 100 2018/08/26
2018/07/26 Xiaomi Mi Max 3 6GB 128GB – Black $354.23 GKB4%OFF 50 2018/08/26
2018/07/26 Xiaomi Mi8 6GB 128GB White / Blue $489.99 LEPWQOJC 100 2018/08/11
2018/07/26 Xiaomi Mi8 6GB 64GB White / black / blue $459.99 JMHAUIFA 100 2018/08/08
2018/07/26 Lenovo Z5 6GB 64GB Black $236.99 LVUQLBHQ 50 2018/08/02
2018/07/26 Lenovo Z5 6GB 64GB Blue $251.99 TLOPUYTM 50 2018/08/02
2018/07/26 [Official Global Version] Xiaomi Mi A2 4GB 32GB Black / Gold $239.03 GKB4%OFF 50 2018/08/26
2018/07/26 [Official Global Version] Xiaomi Mi A2 4GB 64GB Black $264.95 GKB4%OFF 50 2018/08/26
2018/07/26 [Official Global Version] Xiaomi Mi A2 Lite 4GB 64GB Black $208.31 GKB4%OFF 50 2018/08/26
2018/07/26 OPPO Find X 8GB 128GB Red / Blue $859.99 WDLZCAIR 100 2018/08/02
2018/07/26 [Italy Stock] Global Xiaomi Redmi Note 5 4GB 64GB – Gold $229.99 KWRSUZKY 50 2018/08/26
2018/07/26 [Italy Stock] Global Xiaomi Redmi Note 5 3GB 32GB – Gold $199.99 OTSMBIFD 20 2018/08/26
2018/07/26 [Italy Stock] Global ROM Xiaomi Redmi 5 Plus 4GB 64GB – Gold $195.99 EZZGBWGO 20 2018/08/26
2018/07/26 [Italy Stock] ZTE Nubia M2 Lite 3GB 64GB – Gold / Black Gold $125.99 XXGLIVKL 20 2018/08/26
2018/07/26 [Italy Stock] Global ROM Xiaomi Mi Max 2 4GB 128GB $267.99 VZBXFNXE 50 2018/08/05
2018/07/26 Xiaomi Mi Pad 4 WiFi + 4G LTE 4GB 64GB – Gold $289.99 MTIASBQW 100 2018/08/18
2018/07/26 Huawei M3 Tablet 8.4″ 4GB/64GB WIFI $319.99 GKB023T 50 2018/08/26
2018/07/26 [Italy Stock] International Version XIAOMI 4K Mi Box $64.99 XIAOMIBOXIT 50 2018/08/26
2018/07/26 [Italy Stock] English Version Xiaomi Huami Amazfit Bip Lite – All Colors $63.99 AFJKBMGY 100 2018/08/25
2018/07/26 [HK Stock](English Version)Xiaomi Huami Amazfit Bip – Orange $59.99 ZUSSTMJO 100 2018/08/13
2018/07/26 [Italy Stock] [Package A] Xiaomi Mijia Roborock Vacuum Cleaner 2 $449.99 OEQUPLZV 50 2018/08/26
2018/07/26 [Italy Stock] International Xiaomi Roborock Xiaowa Lite Vacuum Cleaner $229.99 RRXZLBRD 30 2018/08/26
2018/07/26 Moxiaodi Smart Dishwasher Portable Hand Hold $79.99 ZWEOQLVW 100 2018/08/26
2018/07/26 [Poland Stock] Xiaomi Xiaowa Lite Vacuum Cleaner $239.99 TEOLDBOC 100 2018/08/16
2018/07/26 Virtoba Elite X iCatch SPCA6330M GC4603 $32.99 FCMXHIIM 100 2018/08/13
2018/07/26 [HK Stock] Official International Version Xiaoyi YI 4K $153.99 LKZMTKEV 100 2018/08/13
2018/07/26 Logitech G304 Lightspeed Wireless Gaming Mouse $49.99 WCFFAGTA 100 2018/08/13

 

Update on July 25, 2018

Update Date Product Name Final Prices Link on Coupon Limited Qty Expiry Date
2018/07/25 [Italy Stock] Xiaomi Redmi 5 Plus 3GB 32GB Gold $179.99 VYGNQFZG 20 2018/08/05
2018/07/25 [Italy Stock] Xiaomi Redmi 5 Plus 4GB 64GB Blue $195.99 JMFTVXXN 50 2018/08/05
2018/07/25 [HK Stock] Global Xiaomi Redmi Note 5 3GB 32GB Black $175.99 OOHQXIFD 100 2018/08/06
2018/07/25 [HK Stock] Global Xiaomi Redmi Note 5 3GB 32GB Gold $179.99 UVNODRRQ 100 2018/08/06
2018/07/25 [HK Stock] Global Xiaomi Redmi Note 5 4GB 64GB Black $204.99 UTRFQZIG 100 2018/08/02
2018/07/25 Oneplus 6 8GB 128GB Silk White $605.99 VCNAOTBE 50 2018/08/01
2018/07/25 [HK Stock] Xiaomi Mi8 SE 6GB 64GB Gold $335.99 YSPGHKTV 100 2018/07/31
2018/07/25 Xiaomi Mi8 SE 4GB 64GB Gold / Dark Gray $308.99 OXSHFASO 100 2018/08/03
2018/07/25 Xiaomi Mi8 SE 6GB 64GB Blue/ Red $359.99 GQPOGXBA 100 2018/08/03
2018/07/25 Xiaomi Mi Max 3 4GB 64GB Black $305.99 KRFVDODP 50 2018/08/09
2018/07/25 Global Version Xiaomi Redmi 6A 3GB 32GB Gray $125.99 NUUXWZIX 50 2018/08/09
2018/07/25 CUBOT CHEETAH 2 3GB 32GB Gold $89.99 THIFGCSF 20 2018/08/09
2018/07/25 HUAWEI Honor 6X 4GB 32GB Silver $129.99 RKSYMQTH 20 2018/08/09
2018/07/25 VC601B Bluetooth 4.0 Car Tire Pressure Monitoring $35.99 FMMPDEST 50 2018/08/12
2018/07/25 KONNWEI KW850 OBDII EOBD CAN $53.99 EUHPVBYT 50 2018/08/12
2018/07/25 Teclast A10H MT8163 10.1″ IPS 2GB 16GB GPS $94.99 GKB022T 50 2018/08/25
2018/07/25 Mi Notebook Air 13.3″ i7-8550U 8GB/256GB GeForce MX150 Silver $915.99 GKB021T 50 2018/08/25
2018/07/25 Lenovo HX03F Bluetooth 4.2 Smart Bracelet 0.96″ Color Screen IP68 Heart Rate Moniter $26.99 EQMYGFNC 50 2018/08/12

 

Update on July 24, 2018

Update Date Product Name Final Prices Link on Coupon Limited Qty Expiry Date
2018/07/24 [Official Global Version]Xiaomi Mi8 6GB 64GB Black $480.99 DFHFCFUO 50 2018/08/07
2018/07/24 Xiaomi Mi8 6GB 64GB White / black / blue $459.99 JMHAUIFA 100 2018/08/08
2018/07/24 Xiaomi Mi8 6GB 128GB White / black / blue / gold $499.99 WJICJDED 100 2018/08/08
2018/07/24 [Poland Stock] (English Version) Xiaomi HUAMI AMAZFIT 2 $179.99 ZIIAOWIM 50 2018/08/09
2018/07/24 Logitech G90 Wired Optical Gaming Mouse 2500DPI $19.99 AGNARFNT 50 2018/08/09
2018/07/24 Lenovo Xiaoxin Air i5-8250U 14″ IPS MX150 8GB+256GB $1,059.99 GKB018T 50 2018/08/23
2018/07/24 Chuwi Hi13 + Magnetic Keyboard $339.99 GKB017T 50 2018/08/23
2018/07/24 [DE Stock] Teclast Master T8 $189.99 GKB020T 50 2018/08/24
2018/07/24 [ES Stock]Teclast F7 Laptop N3450 14 ” 1080P 6GB/64GB $279.99 GKB019T 50 2018/08/24
2018/07/24 [HK Stock] [International Version] Xiaomi Roborock Xiaowa E20 Vacuum Cleaner $259.99 XCFJNUED 100 2018/08/23
2018/07/24 [Italy Stock]Xiaomi Mijia Bluetooth Temperature Humidity Monitor $23.99 UYBXJPWU 50 2018/08/11
2018/07/24 [Italy Stock][International Version]Xiaomi Mijia Smart Night Light $15.99 FKRZWBIC 50 2018/08/11
2018/07/24 Geekbes GC801 WiFi Smart Power Strip $26.99 SGPFCHWV 50 2018/08/24
2018/07/24 [Germany Stock]Original Xiaomi Mijia Yeelight $34.99 LVOPCFCV 50 2018/08/11
2018/07/24 [Spain Stock] [Official International Version] Xiaoyi YI 4K Action Camera $135.99 GBFWIAWO 50 2018/08/11
2018/07/24 Vikcam DR60 Car DVR Ambarella A12A25 $42.99 FBMJZMTY 50 2018/08/11
2018/07/24 Xiaoyi Yi Smart Car DVR 1080P 60FPS $59.99 ANROZHLG 50 2018/08/11
2018/07/24 REDPAWZ R020 $45.99 CUSGIRNU 50 2018/08/11
2018/07/24 FUNSNAP Capture 3-Axis Brushless Gimbal $76.00 GDVCRXYN 50 2018/08/11
2018/07/24 MJX Bugs 3 Pro B3 Pro without Camera RTF $133.99 WRUZXQZG 50 2018/08/11
2018/07/24 MJX Bugs 3 B3 Pro with 1080P Camera RTF $188.00 ESHQNNZR 50 2018/08/11
2018/07/24 UD2169A 2.4GHz 1:8 4WD Brushed RC Car RTR $35.99 TULLKREA 50 2018/08/11

 

Update on July 21, 2018

Update Date Product Name Final Prices Link on Coupon Limited Qty Expiry Date Priority Line to EU
2018/07/21 Xiaomi Mi Max 3 Smartphone 6GB 128GB – Black $358.99 NYIITKRI 100 2018/08/05 YES
2018/07/21 [Italy Stock] Global ROM Xiaomi Mi Max 2 4GB 128GB Smartphone $267.99 VZBXFNXE 50 2018/08/05 YES
2018/07/21 [Italy Stock] Blackview BV9000 Pro 6GB 128GB Smartphone $309.99 NGWNGUVA 20 2018/08/05 YES
2018/07/21 [Italy Stock] Global Ulefone T1 Premium Edition 6GB 128GB Smartphone $209.99 WCMQCTRC 30 2018/08/05 YES
2018/07/21 [Italy Stock] Huawei P10 Plus 6GB 128GB Smartphone $629.99 LEYILJZU 20 2018/08/05 YES
2018/07/21 [Italy Stock] ZTE Nubia M2 Lite 3GB 64GB Smartphone $129.99 KKOCRIQG 20 2018/08/05 YES
2018/07/21 [Germany Stock] Nubia M2 NX551J 4GB 64GB Black Gold $165.99 QVUODNAJ 30 2018/08/05 YES
2018/07/21 [Germany Stock] Xiaomi Mi Mix 2 8GB 128GB White $599.99 NVUBZADQ 20 2018/08/05 YES
2018/07/21 [Germany Stock] Xiaomi Mi A1 4GB 32GBBlack $205.99 OCCFLPTR 20 2018/08/05 YES
2018/07/21 [Germany Stock] Xiaomi Mi A1 4GB 64GB Black $215.99 XUBNCRQC 20 2018/08/05 YES
2018/07/21 [Spain Stock] Xiaomi Mi Mix 2 6GB 256GBBlack $559.99 MEBTTYAR 20 2018/08/05 YES
2018/07/21 [Spain Stock] Xiaomi Redmi 5 Plus 3GB 32GB Blue $182.99 YJOZUCZI 30 2018/08/05 YES
2018/07/21 [Spain Stock] Global Ulefone T1 Premium Edition 6GB 128GB Red Blue $209.99 MXWTGDZP 20 2018/08/05 YES
2018/07/21 [Spain Stock] HOMTOM S8 4GB 64GB Arctic Silver $129.99 ZCRCBDNO 20 2018/08/05 YES
2018/07/21 [Spain Stock] Global Ulefone T1 Premium Edition 6GB 128GB Black $209.99 MXWTGDZP 20 2018/08/05 YES
2018/07/21 [Spain Stock]Leagoo S8 Pro 6GB 64GB Black $239.99 WLTELCCN 20 2018/08/05 YES
2018/07/21 [Italy Stock] Coolpad Cool Play 6 6GB 64GB Black $185.99 HGUFUPPJ 20 2018/08/05 YES
2018/07/21 [Italy Stock] Ulefone S8 Pro 2GB 16GB Black $89.99 VMJTQXKR 20 2018/08/05 YES
2018/07/21 [Italy Stock]HOMTOM S8 4GB 64GB Arctic Silver $139.99 YISTFDWJ 20 2018/08/05 YES
2018/07/21 [Italy Stock]Xiaomi Redmi 5 Plus 3GB 32GB Gold $179.99 VYGNQFZG 30 2018/08/05 YES
2018/07/21 [Italy Stock]HUAWEI Mate 10 4GB 64GB Black $569.99 DAKOYUWO 20 2018/08/05 YES
2018/07/21 [Italy StockXiaomi Mi A1 5.5 inch 4GB 32GB Black $199.99 LESZFURQ 20 2018/08/05 YES
2018/07/21 [Italy Stock]Xiaomi Redmi 5 Plus 4GB 64GB Blue $195.99 JMFTVXXN 50 2018/08/05 YES
2018/07/21 [Poland Stock]Xiaomi Redmi 5 Plus 4GB 64GB Gold $185.99 MZHTVGKT 20 2018/08/05 YES
2018/07/21 [Poland Stock]Xiaomi Redmi 5 Plus 4GB 64GB Black $189.99 GRWWDMTE 20 2018/08/05 YES
2018/07/21 [Poland Stock]Xiaomi Redmi 5 3GB 32GB Gold $151.99 ZDSNOLPF 20 2018/08/05 YES
2018/07/21 Xiaomi HIMO Portable Folding Electric Moped $338.99 REGDRJYC 50 2018/08/05 YES
2018/07/21 Xiaomi ACTON Smart Electric Skateboard $189.99 YJGFDFHU 50 2018/08/05 YES
2018/07/21 Beelink S2 Gemini Lake N4100 4GB 128GB Win10 Mini PC $207.99 GEMINI1 50 2018/08/05 YES
2018/07/21 Mecool M8S PLUS DVB-T2/T/C S905D KODI 18.0 tv box $53.99 Flash sale 50 2018/08/05 YES
2018/07/21 Tronsmart TK09R Mechanical Gaming Keyboard US Layout $69.99 PPJMNXYH 50 2018/08/05 YES
2018/07/21 [Germany Stock] Tronsmart Element Mega Bluetooth Speaker $49.99 TSMEGADE 50 2018/08/05 YES
2018/07/21 JH-S9100 Wireless Bluetooth TWS Dual Headphones $21.99 Flash sale 50 2018/08/05 YES
2018/07/21 GameSir G5 Bluetooth 5.0 Game Controller Wireless Touchpad $58.99 GAMESIR 50 2018/08/05 YES
2018/07/21 S5 3-Axis Brushless Handheld Gimbal $75.99 VTIEUSYO 50 2018/08/05 YES

 

Update on July 20, 2018

Update Date Product Name Final Prices Link on Coupon Limited Qty Expiry Date
Priority Line to EU
2018/07/20 HUAWEI Nova 3 6GB 128GB Black /Purple / Blue $519.99 LSWFPAFM 200 2018/08/04 YES
2018/07/20 DOOGEE X5 Max Pro 2GB 16GB White $72.99 VQLYJKUI 20 2018/08/04 YES
2018/07/20 MEIZU M5 3GB 32GB Gray $109.99 UFDLWGYG 20 2018/08/04 YES
2018/07/20 CUBOT R9 2GB 16GB Gold $58.99 HXOOHZNV 20 2018/08/04 YES
2018/07/20 Xiaomi Mijia Quartz Smartwatch $69.99 KFWAXUAT 100 2018/08/05 YES
2018/07/20 Makibes KR03 Smart Bracelet Color Screen IP68 Built-in GPS $31.99 HRXMAODX 50 2018/08/04 YES
2018/07/20 ALLDOCUBE KNote 5 N4100 11.6″ 4G+128G $275.99 GKB016T 50 2018/08/19 YES
2018/07/20 Mi Notebook Air 13.3″ i5-8250U 8GB/256GB Graphics 620 Silver $849.99 GKB015T 50 2018/08/19 YES
2018/07/20 Teclast F7 Laptop 6GB 128GB $279.99 PGCOWSYQ 50 2018/08/19 YES
2018/07/20 Jumper EZbook 3 Pro Laptop 6GB 64GB $244.99 BXIQJZSM 50 2018/08/19 YES
2018/07/20 Foream Drift Ghost-S Ambarella A7 1080p/60fps $178.99 MCWLENLX 50 2018/08/04 YES
2018/07/20 Makibes 6000K 9006 55W 12V Xenon Car Headlight $29.99 VNUZNNMN 50 2018/08/04 YES
2018/07/20 Ramsta S800 480GB SSD $79.99 MDRDLKGZ 50 2018/08/04 YES
2018/07/20 Tronsmart Element Mega Bluetooth Speaker $39.99 FNVJHSLZ 50 2018/07/31 YES
2018/07/20 FUNSNAP iDol 1080P WiFi FPV Foldable RC Quadcopter $235.00 IXZUFAUW 50 2018/08/05 YES

 

Update on July 19, 2018

Update Date Product Name Final Prices Link on Coupon Limited Qty Expiry Date
Priority Line to EU
2018/07/19 Xiaomi Mi Max 3 4GB 64GB Gold $305.99 WBITABXS 100 2018/08/04 YES
2018/07/19 Meizu 15 4GB 64GB – Black $339.99 CSFWNCYU 100 2018/08/16 YES
2018/07/19 Xiaomi Mi Pad 4 WiFi + 4G LTE 4GB 64GB – Gold $289.99 MTIASBQW 100 2018/08/18 YES
2018/07/19 [DE Stock]Teclast F6 Pro Notebook 13.3″ 8GB 128GB $485.99 GKB014T 100 2018/08/19 YES
2018/07/19 ALLDOCUBE X1 4G Tablet 8.4″ MT6797 Deca Core $219.99 GKB013T 100 2018/08/19 YES
2018/07/19 [HK Stock] Xiaomi MITU WIFI FPV RC Drone BNF $66.99 SREHDGYD 100 2018/08/18 YES
2018/07/19 Feiyu Tech FY WG2 WaterProof Wearable Gimbal $154.99 JSYHAYDP 100 2018/08/18 YES
2018/07/19 [Germany Stock] Package A Xiaomi Mijia Cleaner 2 $459.99 IEHQGBVZ 100 2018/07/29 YES
2018/07/19 KM-8871 EU Plug 4D Electric Shaver $25.99 BOSOMOPY 100 2018/08/18 YES
2018/07/19 Light-Sensitive Bug Zapper $25.99 YGIETXMY 100 2018/08/18 YES
2018/07/19 Beelink Gemini X55 Gemini Lake J5005 Windows 10 Mini PC $289.99 ANWKOLZV 100 2018/08/04 YES
2018/07/19 vorke v2 plus i7-7500u 8gb/256gb $439.99 DSTUZQJM 100 2018/08/03 YES
2018/07/19 mx10 4GB DDR4 32GB eMMC Android 8.1 TV BOX $49.99 MX10MX 100 2018/08/03 YES
2018/07/19 CORSAIR Vengeance LPX 2 x 8GB DDR4 DRAM Memory Modules $279.99 XXTHITYP 100 2018/08/16 YES
2018/07/19 2PCS Ramsta RGB light 8GB DDR4 Memory Module For Desktop $179.99 NUITBAOP 100 2018/08/16 YES

 

Update on July 18, 2018

Update Date Product Name Final Prices Link on Coupon Limited Qty Expiry Date
Priority Line to EU
2018/07/18 HUAWEI Mate 10 4GB 64GB Black $470.99 IDCJXKTS 50 2018/08/18 YES
2018/07/18 HUAWEI Nova 2 Plus 4GB 128GB Blue $289.99 CDLFYIER 50 2018/08/18 YES
2018/07/18 XIAOMI Redmi 3S 2GB 16GB Gold $129.99 YISIAWEV 10 2018/08/18 YES
2018/07/18 Ulefone S8 Pro 2GB 16GB Gold $91.99 ELKIVXGP 15 2018/08/18 YES
2018/07/18 [Poland Stock] Coolpad Cool Play 6 6GB 64GB – Black $168.99 VITFVBMC 30 2018/08/16 YES
2018/07/18 [Poland Stock] ZTE Nubia M2 Lite 3GB 64GB – Black Gold $125.99 KKXWQAGK 30 2018/08/16 YES
2018/07/18 [Poland Stock] LeTV LeEco Le Pro 3 AI Edition 4GB 64GB – Gold $139.99 WYPAOTNR 30 2018/08/16 YES
2018/07/18 [Poland Stock] Global Nubia M2 4GB 64GB – Black Gold $159.99 TFCVZIJO 50 2018/08/16 YES
2018/07/18 [Poland Stock] Global Nubia M2 4GB 64GB – Champagne Gold $159.99 YRHPMTDB 50 2018/08/16 YES
2018/07/18 [Poland Stock] GOME K1 4GB 64GB – Gray $117.99 VQTJRCCL 30 2018/08/16 YES
2018/07/18 [Poland Stock] Ulefone Power 5 6GB 64GB – Black $269.99 FKCYAXYR 30 2018/08/16 YES
2018/07/18 [Poland Stock] Global ROM Oneplus 6 6GB 64GB – Mirror Black $549.99 SHCVWJXG 30 2018/08/16 YES
2018/07/18 [Germany Stock] Blackview BV8000 Pro 6GB 64GB – Gray $249.99 AVAPZIYS 20 2018/08/16 YES
2018/07/18 [Germany Stock] GOME K1 4GB 64GB – Gray $117.99 VUTKGGHE 20 2018/08/16 YES
2018/07/18 [Germany Stock] GOME K1 4GB 128GB – Gray $127.99 OHPBVFYX 20 2018/08/16 YES
2018/07/18 [Germany Stock] Ulefone Power 5 6GB 64GB – Black $269.99 KQOXSDRS 30 2018/08/16 YES
2018/07/18 [Germany Stock] Global ROM Oneplus 6 6GB 64GB – Mirror Black $549.99 ORSNKXZF 50 2018/08/16 YES
2018/07/18 [UK Stock] Global ZTE Nubia Z17 Lite 6GB 64GB – Blue $199.99 QMRTBEZC 50 2018/08/16 YES
2018/07/18 [UK Stock] Global ZTE Nubia Z17 Lite 6GB 64GB – Black Gold $199.99 QMRTBEZC 50 2018/08/16 YES
2018/07/18 [HK Stock] Foream Drift Stealth-2 Ambarella $85.99 LLPPXCMX 50 2018/08/03 YES
2018/07/18 [HK Stock] Official International Version Xiaoyi YI 4K $155.99 UYMZDJUL 50 2018/08/03 YES
2018/07/18 GitUp Git2 Pro 2K WiFi Action Camera 1440P $99.99 POYPMKWN 50 2018/08/03 YES
2018/07/18 Feiyu Tech G6 Plus WiFi Bluetooth Gimbal $259.00 UNAQNMHH 50 2018/08/18 YES
2018/07/18 VISUO XS809 Mini 720P Drone $52.99 BVDSCVBS 30 2018/07/28 YES
2018/07/18 JJRC S4 SPECTRE 720P WiFi FPV RC Boat $65.99 SYYFACDA 50 2018/08/03 YES
2018/07/18 Original Xiaomi Mi Band 3 Smart Bracelet $30.99 VPWXKBFK 50 2018/08/03 YES
2018/07/18 Makibes G03 Plus Smart Bracelet Built-in GPS Color Screen $39.99 DMIQKLAJ 50 2018/08/03 YES

 

Update on July 17, 2018

Update Date Product Name Final Prices Coupon Code Link on Coupon Limited Qty Expiry Date
2018/07/17 Official Global Version Xiaomi Mi8 6GB 64GB Black $447.99 KCPVKBYH KCPVKBYH 100 2018/07/31
2018/07/17 HUAWEI Nova 3e 4GB 64GB Blue / Black $279.99 FXDYKBGK FXDYKBGK 100 2018/08/02
2018/07/17 [Poland Stock] Xiaomi Mi Max 2 4GB 64GB Gold $209.99 RYMJPFVY RYMJPFVY 50 2018/08/02
2018/07/17 [Poland Stock] Xiaomi Redmi 5 Plus 4GB 64GB Black /Gold $185.99 EFMFDSFL EFMFDSFL 50 2018/08/02
2018/07/17 [Italy Stock] Xiaomi Mi Max 2 4GB 128GBGold $275.99 IQLLMLSV IQLLMLSV 50 2018/08/02
2018/07/17 [Italy Stock] Xiaomi Mi Max 2 4GB 64GB Gold $219.99 QGWVOZDR QGWVOZDR 50 2018/08/02
2018/07/17 [Italy Stock] LeTV X650 4GB 64GB Gold $145.99 NNUSCCNG NNUSCCNG 50 2018/08/02
2018/07/17 [Italy Stock] Xiaomi Redmi 5 Plus 4GB 64GB Blue $199.99 BIKLBJGU BIKLBJGU 50 2018/08/02
2018/07/17 [Germany Stock] Xiaomi Redmi 5 Plus 4GB 64GB Gold /Black $187.99 UWYIIRXL UWYIIRXL 50 2018/08/02
2018/07/17 [Germany Stock] Nubia M2 4GB 64GB Black Gold $165.99 RJSMQZBX RJSMQZBX 50 2018/08/02
2018/07/17 [Spain Stock] LeTV LeEco Le X526 3GB 32GB Gold $109.99 XBIRCTCE XBIRCTCE 50 2018/08/02
2018/07/17 [Spain Stock] Xiaomi Redmi 5 Plus 4GB 64GBBlack $195.99 HEOSUVRF HEOSUVRF 50 2018/08/02
2018/07/17 [Spain Stock] Ulefone T1 6GB 128GB Red Blue $249.99 JCMNPSHK JCMNPSHK 20 2018/08/02
2018/07/17 E&L S30 2GB 16GB Black $85.99 QBCMDTPD QBCMDTPD 20 2018/08/02
2018/07/17 MEIZU M5 NOTE 4GB 64GB Gold $119.99 ZXEYEDLA ZXEYEDLA 20 2018/08/02
2018/07/17 MEIZU M5 NOTE 3GB 32GB Gray $109.99 ZAWLKXIX ZAWLKXIX 20 2018/08/02
2018/07/17 Beelink AP34 Pro N3450 4GB/64GB Windows 10 Mini PC $145.00 3AP34PRO 3AP34PRO 50 2018/07/31
2018/07/17 Beelink AP34 Pro N3450 6GB/64GB Window 10 Mini PC $175.00 LKNWDEAO LKNWDEAO 50 2018/07/31
2018/07/17 Mecool M8S PLUS DVB-T2/T/C S905D KODI 18.0 Android TV BOX $48.99 PZFTQFMY PZFTQFMY 50 2018/08/17
2018/07/17 [Spain Stock] ALLCALL W1 3G Smartwatch Phone $99.99 XSBUYSDO XSBUYSDO 50 2018/08/02
2018/07/17 XIAOMI Wowstick SE Electric Screw Driver $16.99 ZBJLCEMU ZBJLCEMU 100 2018/08/17
2018/07/17 [Spain Stock] XShuai HXS-C3 Robotic Vacuum Cleaner $219.99 KONBARTI KONBARTI 50 2018/08/17
2018/07/17 [Poland Stock] XShuai HXS-C3 Robotic Vacuum Cleaner $219.99 UDHOWCTM UDHOWCTM 50 2018/08/17
2018/07/17 Global Version YI Compact Dash Camera $42.99 HIDHLEWR HIDHLEWR 100 2018/08/17
2018/07/17 [International Edition] Xiaomi QICYCLE EF1 Smart Bicycle $668.83 PNQQJLGS PNQQJLGS 50 2018/08/09
2018/07/17 Xiaomi HIMO H1 Portable Folding Two-Wheel Electric Bicycle $749.99 STLUYFPY STLUYFPY 50 2018/08/17
2018/07/17 Xiaomi HIMO Portable Folding Electric Assist Bicycle $335.99 RWRKTNRM RWRKTNRM 50 2018/08/12
2018/07/17 Xiaomi ACTON Smart Electric Skateboard $185.99 BPSSZXUL BPSSZXUL 50 2018/07/26

 

Update on July 16, 2018

Update Date Product Name Final Prices Link on Coupon Limited Qty Expiry Date
Priority Line to EU
2018/07/16 Official Global Version Xiaomi Mi8 6GB 64GBBlack $465.99 KCPVKBYH 100 2018/07/31 YES
2018/07/16 Lenovo Z5 6GB 64GB Black $236.99 LVUQLBHQ 100 2018/08/02 YES
2018/07/16 Lenovo Z5 6GB 64GB Blue $251.99 TLOPUYTM 100 2018/08/02 YES
2018/07/16 [HK Stock] Global Xiaomi Redmi 6A 2GB 16GB – Gold $109.99 ADZSZPNV 100 2018/08/02 YES
2018/07/16 [Italy Stock] Global Nubia M2 4GB 64GB – Black Gold / Champagne Gold $169.99 VISCGZKD 100 2018/08/16 YES
2018/07/16 OPPO Find X 8GB 128GB Red / Blue $859.99 WDLZCAIR 100 2018/08/02 YES
2018/07/16 OnePlus 5 6GB 64GB Slate Gray $469.99 QVTBFMVS 10 2018/07/31 YES
2018/07/16 Onda V18 Pro Quad Core 3G+32G $149.99 GKB012T 100 2018/08/16 YES
2018/07/16 Teclast A10S $109.99 GKB011T 100 2018/08/16 YES
2018/07/16 Binai Mini101 3G Phablet 10.1″ – Black $89.99 MRJSFXHU 100 2018/08/16 YES
2018/07/16 [Poland Stock]Xiaomi Xiaowa Lite $239.99 TEOLDBOC 100 2018/08/16 YES
2018/07/16 [Spain Stock]Xiaomi Xiaowa Lite $239.99 CNIUBMJX 100 2018/08/16 YES
2018/07/16 Xiaomi ZMI Portable Mosquito Repellent $17.99 CBDMKFXF 100 2018/08/16 YES
2018/07/16 Beelink KT03 Intel Apollo J3455 Barebone Mini PC $149.99 OBULKXJW 100 2018/08/16 YES
2018/07/16 MECOOL M8S PLUS L Amlogic S912 4K TV BOX $54.99 TPYXSNSW 100 2018/08/16 YES
2018/07/16 VESKYS N23 1080P WiFi IP Camera $28.99 MLUQHUYE 100 2018/08/16 YES
2018/07/16 Makibes KR02 Color Screen IP68 Built-in GPS Heart Rate Monitor $31.99 YGGFCQWS 100 2018/07/31 YES
2018/07/16 ACGAM G402 PMW3325 Wired Gaming Mouse $12.99 FIKTPYTW 100 2018/07/31 YES
2018/07/16 MJX Bugs 3 H B3H 5G WiFi FPV Brushless RC Quadcopter RTF $175.00 HYKKKFCG 100 2018/08/16 YES

 

Update on July 12, 2018

Update Date Product Name Final Prices Link on Coupon Limited Qty Expiry Date
Priority Line to EU
2018/07/12 Xiaomi Mi 6X 4GB 32GB black / red / gold / pink $221.99 QWOSHDDF 200 2018/08/12 YES
2018/07/12 HUAWEI Honor 7A 3GB 32GB Black/ blue $139.99 ZZSKTBDB 100 2018/08/12 YES
2018/07/12 HUAWEI Honor 9i 4GB 128GB Black $271.99 ZBYUGFBC 50 2018/08/12 YES
2018/07/12 Vivo Nex 6GB 128GB Black $621.99 CFVAAGWQ 50 2018/08/12 YES
2018/07/12 Xiaomi Mi8 6GB 64GB White / Blue $469.99 GUEYBSEU 100 2018/07/27 YES
2018/07/12 Xiaomi Mi8 6GB 64GB Black $479.99 WQPZGOHI 100 2018/07/27 YES
2018/07/12 Xiaomi Mi8 6GB 128GB Whire / Blue $489.99 LEPWQOJC 100 2018/07/27 YES
2018/07/12 [Italy Stock] Coolpad Cool Play 6 6GB 64GB – Black $199.99 BLPGFEFN 30 2018/08/12 YES
2018/07/12 HOMTOM ZOJI Z6 8GB ROM Black $65.99 YIGMFNVY 20 2018/07/27 YES
2018/07/12 HOMTOM ZOJI Z8 4GB 64GB Orange $168.99 PLEHPEYU 20 2018/07/27 YES
2018/07/12 Meiigoo S8 4GB 64GB Black / blue $145.99 APXEQNXJ 30 2018/07/27 YES
2018/07/12 Teclast F6 Pro Notebook – Italy / Spain / Germany Stock $489.99 VUKCKOCJ 50 2018/08/12 YES
2018/07/12 Jumper EZbook 3L Pro $239.99 GKB007T 50 2018/08/12 YES
2018/07/12 Jumepr Ezbook 2 $189.99 GKB006T 50 2018/08/12 YES
2018/07/12 Lenovo Watch X Quartz Smartwatch Heart Rate Monitor $69.99 PLWUWJIS 100 2018/08/12 YES
2018/07/12 [HK Stock] Weloop Neo GPS Dynamic Heart Rate Monitor $79.99 ALOZYGDD 100 2018/08/12 YES
2018/07/12 [HK Stock] Xiaomi Roidmi F8 Smart Vacuum Cleaner $319.99 ZMZRCVTQ 50 2018/08/12 YES
2018/07/12 [Germany Stock]Global Version Xiaomi Mijia Roborock Vacuum Cleaner 2 $435.99 RLOUHPLB 50 2018/08/12 YES
2018/07/12 [Poland Stock]Xiaomi Mi Robot Vacuum Cleaner Robot $319.99 IWATODMA 50 2018/08/12 YES
2018/07/12 [UK Stock] Xiaomi Mijia Roborock Vacuum Cleaner 2 $469.99 LGMSSQMD 50 2018/07/26 YES
2018/07/12 Xiaomi SWDK Wireless Handheld Ultraviolet Dust $108.99 WPYAVXZB 50 2018/07/26 YES
2018/07/12 Xiaomi HIMO Portable Folding Electric Assist Bicycle $335.99 RWRKTNRM 50 2018/08/12 YES
2018/07/12 Foream Drift Ghost-S Ambarella A7 1080p/60fps $179.99 VPGSBEAT 50 2018/07/26 YES
2018/07/12 Xiaomi ACTON Smart Electric Skateboard $185.99 BPSSZXUL 50 2018/07/26 YES
2018/07/12 Zhiyun Smooth 4 $126.00 MPJSMBAW 50 2018/08/12 YES
2018/07/12 JJRC R5 CADY $42.99 HCSUXITO 50 2018/08/12 YES
2018/07/12 Bayangtoys X22 Dual Gps Drone $215.99 YNUEQYFF 50 2018/08/03 YES
2018/07/12 [Poland Stock] XIAOMI 4K Mi Box $61.99 SHZVBGYW 50 2018/07/26 YES
2018/07/12 [Poland Stock] Nexbox A95X Pro 2G/16G S905W TV Box $42.99 EKNIMKWG 50 2018/07/26 YES
2018/07/12 [Poland Stock] VORKE Z6 Plus S912 3G/32G TV BOX 1000M LAN $64.99 VAGJRLAI 50 2018/07/26 YES
2018/07/12 [Poland Stock]MECOOLAndroid TV OS 3GB/32GB S912 TV Box $72.99 CNFTWWFB 50 2018/07/26 YES
2018/07/12 [Poland Stock]MX10 Android 8.1 RK3328 4GB+ 32GB 4K TV BOX $55.99 GRRIUOVP 50 2018/07/26 YES
2018/07/12 [Poland Stock]VORKE J3455 4K@60hz 4GB+64GB Windows MINI PC $159.99 URHGNAGX 50 2018/07/26 YES
2018/07/12 [Poland Stock]MECOOL Android TV OS 2GB/16GB S905W TV Box $44.99 WKOCMJBR 50 2018/07/26 YES
2018/07/12 [Poland Stock]TANIX TX3 MINI TV BOX Amlogic S905W 2G/16G $36.99 PJWBLBXZ 50 2018/07/26 YES

Update on July 11, 2018

Update Date Product Name Final Prices Link on Coupon Limited Qty Expiry Date
Priority Line to EU
2018/07/11 Xiaomi Black Shark 6GB 64GB Black $519.99 MNDUTURS 100 2018/07/26 YES
2018/07/11 Blackview A7 8GB – Gold $54.99 WYJQTFRD 100 2018/07/26 YES
2018/07/11 Binai Mini101 3G Phablet MTK6580 $89.99 GKB005T 100 2018/08/10 YES
2018/07/11 ALLDOCUBE Cube X1 4G Tablet PC MT6797 $229.99 GKB004T 100 2018/08/10 YES
2018/07/11 Xiaomi Power Bank 2 5000mAh $14.99 MOBEATMS 100 2018/08/11 YES
2018/07/11 [Poland Stock]Tronsmart Element Mega Bluetooth Speaker $47.99 ZCICTNNL 100 2018/07/25 YES
2018/07/11 GTMEDIA GTC DVB-T2/S2/C 4K TV BOX $69.99 XSSDZTDO 100 2018/08/11 YES
2018/07/11 Tronsmart Element Pixie Double Passive Radiators 15W Bluetooth Speaker $34.99 YXUTRGHF 100 2018/07/25 YES
2018/07/11 [HK Stock]Official International Version Xiaomi Mijia 4K $99.99 KXVDQMTO 100 2018/07/25 YES
2018/07/11 Xiaomi 90 Minutes Outdoor Leisure Backpack $65.99 SAZSPOCP 100 2018/07/25 YES
2018/07/11 Xiaomi Small Backpack Level 4 Waterproof 10L $9.99 WICFKUMU 100 2018/07/25 YES
2018/07/11 Xiaomi Roborock Xiaowa E20 Vacuum Cleaner $289.99 AKAYNTDE 100 2018/07/25 YES
2018/07/11 ENLif Cordless Smart Floor Cleaning Robot $119.99 MVNDFKGO 100 2018/07/25 YES
2018/07/11 Xiaomi Roidmi F8 Smart Vacuum Cleaner $379.99 PALZADJQ 100 2018/07/25 YES

 

Update on July 10, 2018

Update Date Product Name Final Prices Link on Coupon Limited Qty Expiry Date
2018/07/10 Xiaomi Mi8 6GB 128GB – Blue $495.99 FFJAFTOL 100 2018/08/09
2018/07/10 Xiaomi Mi 6x 4GB 64GB – All Colors $259.99 FILATKAD 100 2018/08/10
2018/07/10 Xiaomi Mi 6x 6GB 64GB – Black / Red $299.99 NSMYDEGU 100 2018/08/10
2018/07/10 Xiaomi Mi 6x 6GB 128GB – Black $319.99 KDNXXXYN 100 2018/08/10
2018/07/10 Coolpad Cool Play 6 6GB 64GB Black $154.99 VHNSROCR 100 2018/07/25
2018/07/10 One-Netbook One Mix $448.99 GKB003T 100 2018/07/24
2018/07/10 [Spain Stock]Teclast F6 Pro Notebook 8GB 128GB $525.99 GKB002T 100 2018/07/24
2018/07/10 Xiaomi S52 Mi Roborock Cleaning Robot $589.99 UFSZHJKM 100 2018/07/24
2018/07/10 Xiaomi Mijia Smart Toilet Seat $289.99 FCNAFUXK 30 2018/07/24
2018/07/10 Misida PL-603 Pushing Fat Machine $48.99 MZHGNYGH 100 2018/07/24
2018/07/10 Lenovo Watch 9 Quartz Smartwatch $24.99 AMOKWYQQ 100 2018/08/09
2018/07/10 Makibes DM2018 4G Smartwatch Phone $89.99 SWHIUEWW 100 2018/07/24
2018/07/10 International Version YI Compact Dash Camera $44.99 SQJHSAUB 100 2018/07/24
2018/07/10 Xiaoyi Yi Smart Car DVR Dash Camera $54.99 XUZDTNCL 100 2018/07/24
2018/07/10 DDPai Mini2 2K Car DVR Camera Built-in Dual $69.99 MPJTVAEY 100 2018/07/24
2018/07/10 Xiaomi MIIIW Intelligent Mouse Pad Support Qi Wireless Charging $45.99 GMFYBUNF 100 2018/08/10
2018/07/10 SYMA Z1 $39.99 TZVLCNGZ 100 2018/07/24
2018/07/10 NIHUI NH-012 RC Hexacopter $56.99 BMJPDYJA 100 2018/07/24

 

Update on July 9, 2018

Update Date Product Name Final Prices Link on Coupon Limited Qty Expiry Date
2018/07/09 Xiaomi Mi Band 3 $30.99 NHUAZZRD 100 2018/08/09
2018/07/09 [HK Stock] Xiaomi Mi Band 3 $30.99 NHUAZZRD 100 2018/08/09
2018/07/09 Xiaomi Mi Band 3 + Replacement Strap + Protective Screen Film $34.49 BOQIICDF 100 2018/08/09
2018/07/09 Replacement Strap Silicon for Xiaomi Mi Band 3 – All colors $1.99 DLJEAPHO 100 2018/08/09
2018/07/09 Protective Screen Film for Xiaomi Mi Band 3 $1.99 DLJEAPHO 100 2018/08/09
2018/07/09 Original USB Charging Cable for Xiaomi Mi Band 3 $2.99 LYHVAXLA 100 2018/08/09
2018/07/09 Leather Replacement Strap for Xiaomi Mi Band 3 $2.99 LYHVAXLA 100 2018/08/09
2018/07/09 Lenovo Watch 9 Quartz Smartwatch $26.99 AMOKWYQQ 100 2018/08/09
2018/07/09 Makibes BR2 Smartwatch $64.99 IXMRBAHL 50 2018/08/07
2018/07/09 [International Edition] Xiaomi QICYCLE EF1 Smart Bicycle – Black $675.99 OFJPFVJA 50 2018/08/09
2018/07/09 [Poland Stock] XIAOMI 4K Mi Box $57.90 BEZP21 50 2018/08/09
2018/07/09 Xiaomi MIIIW E-sports Mouse Pad $14.99 BDPHZJNH 50 2018/08/07
2018/07/09 Xiaomi Roidmi F8 Smart Vacuum Cleaner $335.99 FYQYLAQC 50 2018/08/07
2018/07/09 Light-Sensitive Bug Zapper $28.99 HRFVKMCL 50 2018/08/07
2018/07/09 Xiaomi Xumei Four-head Reciprocating Shaver $62.99 NFUUDKZO 50 2018/08/07
2018/07/09 Orvibo Xiaofang Wireless Smart WIFI Remote Control Magic Cube $26.99 EJCFWTUZ 50 2018/08/07
2018/07/09 ESCAM QF508 1080P WiFi IP Camera $49.99 HJJRPVDI 50 2018/08/07
2018/07/09 EU Edition YI Home Camera HD 720p $38.99 TZJGBSHQ 50 2018/08/07
2018/07/09 Xiaomi Hualai Xiaofang Smart WiFi IP Camera $49.99 XMDGJGDQ 50 2018/08/07

 

Update on July 7, 2018

Update Date Product Name Final Prices Link on Coupon Limited Qty Expiry Date
2018/07/07 Xiaomi Redmi Note 5 3GB 32GB Black $175.99 OOHQXIFD 100 2018/08/06
2018/07/07 Xiaomi Redmi Note 5 3GB 32GB Gold $179.99 UVNODRRQ 100 2018/08/06
2018/07/07 Xiaomi Mi8 6GB 64GB White $449.99 GMSSGTFF 100 2018/08/06
2018/07/07 Xiaomi Mi8 6GB 64GB black / Blue $453.99 QHGKDNUA 100 2018/08/06
2018/07/07 Xiaomi Mi8 6GB 128GB White $489.99 MMZUYSNC 100 2018/08/06
2018/07/07 [Italy Stock] Global Xiaomi Mi Mix 2 8GB 128GB – White $572.99 OEJOYIIM 20 2018/08/07
2018/07/07 [Spain Stock] Global Xiaomi Redmi Note 5 4GB 64GB – Black $224.99 RWJPTMGO 50 2018/08/07
2018/07/07 [Italy Stock] English Xiaomi HUAMI AMAZFIT Smart Watch 2 – Black $169.99 GVAFESGP 50 2018/08/07
2018/07/07 [Italy Stock] English Xiaomi Huami Amazfit Bip Lite – Green/Orange/Gray $66.99 YUKDOQMW 100 2018/08/07
2018/07/07 [Germany Stock] English Xiaomi Huami Amazfit Cor $54.99 RGTOYUFI 50 2018/08/05
2018/07/07 [Spain Stock] Xiaomi HUAMI AMAZFIT Stratos Smart Watch 2 $174.99 OSGHOJEY 50 2018/08/05
2018/07/07 [Spain Stock] Xiaomi MITU WIFI FPV RC Drone BNF $76.00 JEVVEGSQ 50 2018/08/07
2018/07/07 [Poland Stock] Ramsta S600 480GB SATA3 High Speed SSD – Red $89.99 WVZZBQFG 50 2018/08/07
2018/07/07 [Poland Stock]Tronsmart Element Mega Bluetooth Speaker $52.99 JIUAAHVL 50 2018/08/05
2018/07/07 [Poland Stock] Makibes BR1 Smartwatch Support Strava – Black $49.99 CXNGZCBF 50 2018/08/07
2018/07/07 Xiaomi CIGA Wristwatch Hollow Mechanical $169.99 SLEAMWPZ 50 2018/08/07
2018/07/07 X-STAR DBS 480GB SSD $74.99 UDGPZSXD 50 2018/08/05
2018/07/07 Xiaomi Mijia Cat Disk Shareable Smart Hard Disk 1TB Large Capacity $109.99 NLYVJXMD 50 2018/08/05
2018/07/07 VIOFO A119 V2 NTK96660 OV4689 2.0 Inch $74.99 GLOSUZEJ 50 2018/08/05
2018/07/07 Xiaomi Wowstick 1F + Electric Screwdriver $36.99 SPFJBHGA 50 2018/08/05
2018/07/07 Xiaomi Mi Robot Vacuum Cleaner Robot $349.99 OTLCUJDD 50 2018/08/05
2018/07/07 12PCS Xiaomi Radical Gel Pen $7.99 STPGDFEP 50 2018/08/05
2018/07/07 Geekbes WiFi Smart Bulb $13.99 JVJGEEGQ 50 2018/08/05
2018/07/07 Xiaomi Jushu Smart Security Turntable Lock $295.99 ITQIZQZX 50 2018/08/05
2018/07/07 Original Thieye T5e WiFi 4K Action Camera Ambarella A12LS75 $116.99 URVEIIPO 50 2018/08/05
2018/07/07 [HK Stock] [International Edition] Xiaoyi Yi Smart Car DVR $54.99 HATKFPFH 50 2018/08/05
2018/07/07 4 Parking Sensors Car Reversing Radar Kit Radar $13.99 MLLTBRHL 50 2018/08/05
2018/07/07 Ilpaladino Men’s Short Sleeve Cycling Jersey $15.99 XYKBAHOW 50 2018/08/05
2018/07/07 Vikcam DR60 Car DVR Ambarella A12A25 $44.99 XNVWHVAX 50 2018/08/05
2018/07/07 Chuwi Lapbook Air N3450 8G/128G $364.99 GKB001T 50 2018/08/05
2018/07/07 VOYO i8 Max with Bluetooth Keyboard +Stylus Pen $235.99 GKB99VT 50 2018/08/05
2018/07/07 NOOMAI A108S 4G LTE Phablet $89.99 VZDVCDMN 50 2018/08/05
2018/07/07 JJRC H64 SPIDERMAN $18.99 ADIAQFVK 50 2018/08/05
2018/07/07 DJI Tello Storage Case $13.99 EDBUNSNV 50 2018/08/05
2018/07/07 DJI Mavic Air Fly More Combo $955.00 MQTJAQZA 50 2018/08/05
2018/07/07 DJI Mavic Air 4K RTF $735.00 NVIZHBPR 50 2018/08/05
2018/07/07 DJI Tello 720P WIFI FPV RC Drone – BNF $95.00 WXCTRRJI 50 2018/08/05

 

Update on July 5, 2018

Update Date Product Name Final Prices Link On Coupon Limited Qty Expiry Date
2018/07/05 ZTE Axon M Z999 4GB 64GB Black $529.99 RLBRPNJM 100 2018/08/05
2018/07/05 ZTE Axon M Z999 6GB 128GB Black $729.99 JANRLXIW 100 2018/08/05
2018/07/05 HUAWEI Honor V10 4GB 64GBGold / Black $402.99 SKQRQSLD 100 2018/08/05
2018/07/05 HUAWEI Nova 2 4GB 64GB Gold $279.99 CLWPAEHN 100 2018/08/05
2018/07/05 HUAWEI Mate 10 4GB 64GB Mocha Gold / Champagne Gold $488.99 CCLQMLXL 100 2018/08/05
2018/07/05 HUAWEI Mate 10 6GB 128GB Black / Mocha Gold / Champagne Gold $569.99 KOEOIFLK 200 2018/08/05
2018/07/05 M-horse Pure 3 4GB 64GB Black $109.99 ERDMBKLV 50 2018/08/05
2018/07/05 MEIZU M6 2GB 16GB Gold $109.99 HHOSOVTN 100 2018/08/05
2018/07/05 Nokia 6 4GB RAM 64GB Black $229.99 YNRAXDNH 100 2018/08/05
2018/07/05 ZGPAX S222 Wearable Action Camera Sports $71.99 ENZGSXOG 100 2018/08/05
2018/07/05 K8 Portable GPS Tracker Vibration Real-time Tracking $22.99 JWABDBQF 100 2018/08/05
2018/07/05 VIOFO Car CPL Filter Lens Cover Circular Polarizing $15.99 FMOJSOVW 100 2018/08/05
2018/07/05 Xiaomi Mijia PMA A11 Smart Therapy Belt $39.99 HFNNGYCD 100 2018/08/05
2018/07/05 Electric Egg Beater Household Handheld $22.99 IKCXIUWL 100 2018/08/05
2018/07/05 [Germany Stock]Makibes G03 Plus Smart Bracelet $44.99 XOZMZFLQ 100 2018/08/05
2018/07/05 [Germany Stock][English Version] Original Xiaomi Mi WiFi 3 Router $34.99 TMMXJBIF 100 2018/08/05
2018/07/05 Tronsmart 42W USB-C 2-Port Wall Charger with Power Delivery $17.99 UCKYQLAU 100 2018/08/05


Update on July 3, 2018

Update Date Product Name Final Prices Link on Coupon Limited Qty Expiry Date
2018/07/03
$20 off every $100, $10 0ff every $100, $5 off every $50
2018/07/03 Xiaomi Mi Mix 2S 6GB 64GB Black $477.99 GPNCWAFL 100 2018/08/03
2018/07/03 Xiaomi Redmi Note 5 4GB 64GB Black $204.99 UTRFQZIG 100 2018/08/03
2018/07/03 Xiaomi Mi8 SE 4GB 64GB Gold / Dark Gray $309.99 OXSHFASO 100 2018/08/03
2018/07/03 Xiaomi Mi8 SE 6GB 64GB Blue/ Red $359.99 GQPOGXBA 100 2018/08/03
2018/07/03 Xiaomi Mi8 SE 6GB 64GB Gold / Dark Gray $345.99 TWRRSYGC 100 2018/08/03
2018/07/03 Xiaomi Mi8 6GB 64GB White / Black $469.99 FCRISVSU 100 2018/08/03
2018/07/03 Xiaomi Mi8 6GB 128GB Black /Gold /White / Blue $505.99 CFHQTYZO 200 2018/08/03
2018/07/03 Xiaomi Mi8 6GB 256GB Blue /Black $559.99 GWNNZOWF 100 2018/08/03
2018/07/03 XIAOMI Redmi 3S 2GB 16GB Dark Gray $149.99 EUVICOFQ 20 2018/08/03
2018/07/03 Meiigoo S8 4GB 64GB Black $169.99 TFQHNXJC 30 2018/08/03
2018/07/03 HUAWEI Honor 9 6GB 64GB Blue $355.99 HDBJZURX 20 2018/08/03
2018/07/03 Ulefone Armor 2 6GB 64GB Dark Gray $239.99 XCUNEDLO 30 2018/08/03
2018/07/03 Lenovo TAB3 8 Plus $149.99 GKB97LM 100 2018/08/03
2018/07/03 VOYO i8 Max MT6797 Deca Core 4G/64G $195.99 GKB96VM 100 2018/08/03
2018/07/03 Xiaomi Dafang Smart 1080P WiFi IP Camera $29.99 VYTSHLKA 100 2018/08/03
2018/07/03 [Italy Stock]Tronsmart Element T6 25W Speaker-black $42.99 PLFYPEFX 30 2018/08/03
2018/07/03 [Spain Stock]Tronsmart Element T6 25W Speaker-black $42.99 GAUZMGCW 100 2018/08/03

 

Did you find apk for android? You can find new Free Android Games and apps.